createdAt,value
2023-05-06T00:00:29.549Z,96449.30
2023-05-06T00:03:13.441Z,96456.48
2023-05-06T00:05:42.578Z,96458.48
2023-05-06T00:08:11.219Z,96461.46
2023-05-06T00:10:39.184Z,96459.79
2023-05-06T00:13:08.467Z,96459.87
2023-05-06T00:15:36.720Z,96464.17
2023-05-06T00:18:04.774Z,96462.25
2023-05-06T00:20:33.181Z,96458.13
2023-05-06T00:23:01.627Z,96455.40
2023-05-06T00:25:29.609Z,96453.23
2023-05-06T00:27:57.597Z,96449.87
2023-05-06T00:30:26.666Z,96443.50
2023-05-06T00:32:56.161Z,96434.91
2023-05-06T00:35:24.349Z,96433.20
2023-05-06T00:38:11.419Z,96433.44
2023-05-06T00:40:40.124Z,96432.96
2023-05-06T00:43:09.013Z,96430.03
2023-05-06T00:45:38.736Z,96422.40
2023-05-06T00:48:07.565Z,96421.54
2023-05-06T00:50:35.897Z,96419.27
2023-05-06T00:53:05.559Z,96423.04
2023-05-06T00:55:33.844Z,96420.56
2023-05-06T00:58:02.500Z,96418.48
2023-05-06T01:00:30.759Z,96416.77
2023-05-06T01:02:58.875Z,96414.59
2023-05-06T01:05:35.908Z,96411.17
2023-05-06T01:08:32.441Z,96415.00
2023-05-06T01:11:15.559Z,96416.89
2023-05-06T01:14:04.648Z,96412.27
2023-05-06T01:16:39.178Z,96415.00
2023-05-06T01:19:10.137Z,96410.63
2023-05-06T01:21:41.741Z,96415.90
2023-05-06T01:24:09.734Z,96413.88
2023-05-06T01:26:38.308Z,96412.49
2023-05-06T01:29:07.433Z,96415.11
2023-05-06T01:31:45.883Z,96412.37
2023-05-06T01:34:39.773Z,96406.27
2023-05-06T01:37:17.512Z,96408.10
2023-05-06T01:39:46.745Z,96409.55
2023-05-06T01:42:15.489Z,96408.42
2023-05-06T01:44:44.185Z,96407.08
2023-05-06T01:47:13.800Z,96411.23
2023-05-06T01:49:42.644Z,96407.58
2023-05-06T01:52:12.366Z,96406.06
2023-05-06T01:54:40.295Z,96404.07
2023-05-06T01:57:08.253Z,96404.88
2023-05-06T01:59:36.220Z,96402.86
2023-05-06T02:02:04.210Z,96400.52
2023-05-06T02:04:32.662Z,96398.30
2023-05-06T02:07:01.251Z,96396.08
2023-05-06T02:09:29.314Z,96396.05
2023-05-06T02:12:02.284Z,96397.08
2023-05-06T02:14:30.332Z,96396.30
2023-05-06T02:17:06.198Z,96397.70
2023-05-06T02:19:34.568Z,96404.00
2023-05-06T02:22:02.538Z,96399.02
2023-05-06T02:24:30.585Z,96399.91
2023-05-06T02:26:58.637Z,96397.88
2023-05-06T02:29:26.575Z,96396.70
2023-05-06T02:31:54.571Z,96394.23
2023-05-06T02:34:25.339Z,96387.22
2023-05-06T02:36:53.407Z,96384.05
2023-05-06T02:39:35.198Z,96383.74
2023-05-06T02:42:04.091Z,96380.34
2023-05-06T02:44:34.836Z,96379.54
2023-05-06T02:47:02.816Z,96375.89
2023-05-06T02:49:31.302Z,96373.06
2023-05-06T02:52:01.290Z,96371.73
2023-05-06T02:54:37.040Z,96363.77
2023-05-06T02:57:05.113Z,96367.03
2023-05-06T02:59:35.998Z,96362.92
2023-05-06T03:02:03.964Z,96360.30
2023-05-06T03:04:34.136Z,96359.80
2023-05-06T03:07:02.195Z,96362.34
2023-05-06T03:09:30.231Z,96361.15
2023-05-06T03:12:02.238Z,96361.50
2023-05-06T03:14:31.761Z,96360.34
2023-05-06T03:17:01.041Z,96361.17
2023-05-06T03:19:30.251Z,96359.77
2023-05-06T03:21:58.969Z,96356.95
2023-05-06T03:24:27.635Z,96358.75
2023-05-06T03:26:58.618Z,96360.50
2023-05-06T03:29:26.820Z,96358.44
2023-05-06T03:31:57.885Z,96357.35
2023-05-06T03:34:29.169Z,96359.78
2023-05-06T03:36:58.251Z,96362.66
2023-05-06T03:39:27.291Z,96360.36
2023-05-06T03:41:55.475Z,96361.89
2023-05-06T03:44:24.811Z,96363.33
2023-05-06T03:46:52.774Z,96367.97
2023-05-06T03:49:21.217Z,96366.16
2023-05-06T03:51:49.922Z,96366.12
2023-05-06T03:54:18.663Z,96362.77
2023-05-06T03:56:55.955Z,96362.19
2023-05-06T03:59:23.976Z,96368.83
2023-05-06T04:01:51.959Z,96368.48
2023-05-06T04:04:20.433Z,96373.91
2023-05-06T04:06:48.475Z,96372.31
2023-05-06T04:09:16.367Z,96373.81
2023-05-06T04:11:44.283Z,96375.42
2023-05-06T04:14:13.525Z,96376.13
2023-05-06T04:16:41.644Z,96373.39
2023-05-06T04:19:10.773Z,96380.16
2023-05-06T04:21:47.771Z,96377.08
2023-05-06T04:24:22.004Z,96380.23
2023-05-06T04:26:52.083Z,96379.95
2023-05-06T04:29:21.882Z,96376.41
2023-05-06T04:31:57.092Z,96378.34
2023-05-06T04:34:27.912Z,96382.02
2023-05-06T04:36:59.978Z,96380.10
2023-05-06T04:39:49.041Z,96378.68
2023-05-06T04:42:17.466Z,96375.41
2023-05-06T04:44:51.030Z,96381.15
2023-05-06T04:47:28.966Z,96385.59
2023-05-06T04:49:57.272Z,96388.88
2023-05-06T04:52:30.046Z,96384.45
2023-05-06T04:54:58.278Z,96381.07
2023-05-06T04:57:59.409Z,96376.64
2023-05-06T05:00:27.961Z,96370.70
2023-05-06T05:02:56.143Z,96372.73
2023-05-06T05:05:26.413Z,96366.83
2023-05-06T05:08:14.483Z,96369.34
2023-05-06T05:10:45.969Z,96365.52
2023-05-06T05:14:02.327Z,96363.63
2023-05-06T05:16:33.745Z,96359.62
2023-05-06T05:19:09.566Z,96352.80
2023-05-06T05:21:38.416Z,96349.52
2023-05-06T05:24:06.685Z,96349.27
2023-05-06T05:26:34.815Z,96346.36
2023-05-06T05:29:08.155Z,96345.35
2023-05-06T05:31:46.770Z,96340.88
2023-05-06T05:34:15.352Z,96337.27
2023-05-06T05:36:43.744Z,96335.75
2023-05-06T05:39:13.938Z,96339.02
2023-05-06T05:41:48.631Z,96341.71
2023-05-06T05:44:17.172Z,96339.55
2023-05-06T05:46:46.590Z,96343.54
2023-05-06T05:49:17.528Z,96338.45
2023-05-06T05:51:48.354Z,96337.80
2023-05-06T05:54:23.835Z,96336.82
2023-05-06T05:56:51.760Z,96339.49
2023-05-06T05:59:20.542Z,96349.36
2023-05-06T06:01:48.970Z,96348.39
2023-05-06T06:04:19.652Z,96347.48
2023-05-06T06:06:47.652Z,96347.58
2023-05-06T06:09:17.152Z,96350.19
2023-05-06T06:11:45.536Z,96349.99
2023-05-06T06:14:13.871Z,96344.28
2023-05-06T06:16:43.301Z,96346.08
2023-05-06T06:19:11.838Z,96341.17
2023-05-06T06:21:40.233Z,96334.27
2023-05-06T06:24:08.648Z,96333.03
2023-05-06T06:26:37.613Z,96322.52
2023-05-06T06:29:06.575Z,96323.23
2023-05-06T06:31:36.593Z,96320.83
2023-05-06T06:34:13.013Z,96320.58
2023-05-06T06:36:45.160Z,96325.36
2023-05-06T06:39:13.648Z,96320.53
2023-05-06T06:41:41.842Z,96316.27
2023-05-06T06:44:11.929Z,96313.27
2023-05-06T06:46:39.868Z,96313.29
2023-05-06T06:49:11.555Z,96314.91
2023-05-06T06:52:14.155Z,96309.00
2023-05-06T06:54:42.079Z,96303.08
2023-05-06T06:57:12.092Z,96304.05
2023-05-06T06:59:40.020Z,96304.31
2023-05-06T07:02:10.898Z,96310.95
2023-05-06T07:04:38.853Z,96313.61
2023-05-06T07:07:07.643Z,96314.65
2023-05-06T07:09:35.939Z,96315.29
2023-05-06T07:12:06.444Z,96314.33
2023-05-06T07:14:34.673Z,96312.67
2023-05-06T07:17:02.648Z,96303.57
2023-05-06T07:19:31.733Z,96304.69
2023-05-06T07:22:02.575Z,96303.10
2023-05-06T07:24:30.660Z,96297.98
2023-05-06T07:26:58.701Z,96296.20
2023-05-06T07:29:26.749Z,96292.73
2023-05-06T07:31:54.749Z,96288.10
2023-05-06T07:34:22.703Z,96288.84
2023-05-06T07:36:50.698Z,96287.65
2023-05-06T07:39:18.658Z,96287.98
2023-05-06T07:41:47.007Z,96286.27
2023-05-06T07:44:15.016Z,96284.94
2023-05-06T07:46:43.012Z,96281.20
2023-05-06T07:49:11.067Z,96281.92
2023-05-06T07:51:39.007Z,96278.40
2023-05-06T07:54:07.131Z,96276.60
2023-05-06T07:56:35.797Z,96275.23
2023-05-06T07:59:04.013Z,96267.68
2023-05-06T08:01:32.005Z,96267.08
2023-05-06T08:04:00.696Z,96266.67
2023-05-06T08:06:29.243Z,96262.92
2023-05-06T08:08:57.208Z,96262.48
2023-05-06T08:11:25.224Z,96262.81
2023-05-06T08:13:53.930Z,96250.72
2023-05-06T08:16:23.775Z,96257.14
2023-05-06T08:18:53.385Z,96256.66
2023-05-06T08:21:21.374Z,96253.28
2023-05-06T08:23:49.376Z,96250.53
2023-05-06T08:26:18.235Z,96251.21
2023-05-06T08:28:46.318Z,96250.25
2023-05-06T08:31:14.478Z,96255.73
2023-05-06T08:33:42.531Z,96254.96
2023-05-06T08:36:10.544Z,96254.40
2023-05-06T08:38:38.470Z,96258.91
2023-05-06T08:41:10.006Z,96258.56
2023-05-06T08:43:43.480Z,96255.98
2023-05-06T08:46:11.737Z,96254.13
2023-05-06T08:48:42.016Z,96256.22
2023-05-06T08:51:14.005Z,96257.90
2023-05-06T08:53:49.176Z,96256.28
2023-05-06T08:56:18.311Z,96254.60
2023-05-06T08:58:50.751Z,96257.63
2023-05-06T09:01:19.547Z,96252.45
2023-05-06T09:03:50.155Z,96244.99
2023-05-06T09:06:18.031Z,96245.91
2023-05-06T09:08:45.943Z,96241.48
2023-05-06T09:11:25.846Z,96241.19
2023-05-06T09:14:09.695Z,96242.59
2023-05-06T09:16:39.991Z,96236.45
2023-05-06T09:19:08.157Z,96234.10
2023-05-06T09:21:38.218Z,96226.99
2023-05-06T09:24:08.615Z,96223.48
2023-05-06T09:26:38.503Z,96216.51
2023-05-06T09:29:06.570Z,96214.83
2023-05-06T09:31:41.883Z,96213.34
2023-05-06T09:34:10.811Z,96215.58
2023-05-06T09:36:39.713Z,96213.10
2023-05-06T09:39:08.638Z,96213.29
2023-05-06T09:41:36.747Z,96207.09
2023-05-06T09:44:05.713Z,96208.31
2023-05-06T09:46:33.794Z,96200.39
2023-05-06T09:49:02.262Z,96191.57
2023-05-06T09:51:31.131Z,96185.34
2023-05-06T09:54:00.871Z,96179.21
2023-05-06T09:56:30.879Z,96173.01
2023-05-06T09:59:01.473Z,96165.14
2023-05-06T10:01:36.515Z,96156.13
2023-05-06T10:04:09.711Z,96151.34
2023-05-06T10:06:40.564Z,96150.71
2023-05-06T10:09:09.434Z,96148.09
2023-05-06T10:11:37.572Z,96140.75
2023-05-06T10:14:07.545Z,96143.73
2023-05-06T10:16:36.640Z,96140.58
2023-05-06T10:19:08.194Z,96134.85
2023-05-06T10:21:42.961Z,96136.23
2023-05-06T10:24:19.273Z,96131.16
2023-05-06T10:26:47.986Z,96134.05
2023-05-06T10:29:17.642Z,96134.57
2023-05-06T10:31:58.872Z,96136.39
2023-05-06T10:34:32.242Z,96150.30
2023-05-06T10:37:00.658Z,96156.96
2023-05-06T10:39:32.817Z,96159.52
2023-05-06T10:42:02.421Z,96151.23
2023-05-06T10:45:01.715Z,96146.01
2023-05-06T10:47:58.565Z,96139.40
2023-05-06T10:50:27.178Z,96141.49
2023-05-06T10:52:57.347Z,96152.11
2023-05-06T10:55:38.027Z,96164.72
2023-05-06T10:58:12.228Z,96177.86
2023-05-06T11:00:41.144Z,96185.27
2023-05-06T11:03:14.187Z,96199.39
2023-05-06T11:05:50.190Z,96198.61
2023-05-06T11:08:26.637Z,96189.36
2023-05-06T11:10:55.323Z,96185.11
2023-05-06T11:13:28.319Z,96186.64
2023-05-06T11:15:58.399Z,96191.53
2023-05-06T11:18:36.956Z,96185.70
2023-05-06T11:21:08.419Z,96187.58
2023-05-06T11:23:42.813Z,96188.14
2023-05-06T11:26:12.013Z,96187.27
2023-05-06T11:28:43.778Z,96190.46
2023-05-06T11:31:13.548Z,96189.77
2023-05-06T11:33:47.101Z,96187.70
2023-05-06T11:36:17.696Z,96179.34
2023-05-06T11:38:48.235Z,96173.28
2023-05-06T11:41:17.392Z,96171.44
2023-05-06T11:43:52.836Z,96178.08
2023-05-06T11:46:23.530Z,96193.11
2023-05-06T11:48:52.406Z,96193.71
2023-05-06T11:51:28.095Z,96189.45
2023-05-06T11:54:10.298Z,96196.64
2023-05-06T11:57:08.426Z,96188.35
2023-05-06T11:59:38.578Z,96187.75
2023-05-06T12:02:15.743Z,96186.66
2023-05-06T12:04:46.860Z,96188.52
2023-05-06T12:07:16.451Z,96179.44
2023-05-06T12:09:49.166Z,96173.34
2023-05-06T12:12:22.600Z,96178.43
2023-05-06T12:14:53.377Z,96176.13
2023-05-06T12:17:22.813Z,96172.33
2023-05-06T12:19:50.957Z,96164.48
2023-05-06T12:22:24.880Z,96161.19
2023-05-06T12:24:53.094Z,96157.63
2023-05-06T12:30:35.932Z,96137.68
2023-05-06T12:33:28.252Z,96135.05
2023-05-06T12:36:22.601Z,96138.63
2023-05-06T12:39:01.666Z,96139.09
2023-05-06T12:41:44.306Z,96139.06
2023-05-06T12:44:41.104Z,96131.95
2023-05-06T14:13:58.466Z,96105.85
2023-05-06T14:16:26.577Z,96111.80
2023-05-06T14:18:54.519Z,96107.97
2023-05-06T14:21:23.142Z,96101.60
2023-05-06T14:23:51.084Z,96100.04
2023-05-06T14:26:19.124Z,96100.69
2023-05-06T14:28:47.015Z,96096.33
2023-05-06T14:31:14.989Z,96096.34
2023-05-06T14:33:42.955Z,96095.58
2023-05-06T14:36:10.868Z,96096.52
2023-05-06T14:38:38.916Z,96094.75
2023-05-06T14:41:06.876Z,96095.22
2023-05-06T14:43:34.980Z,96095.14
2023-05-06T14:46:02.954Z,96095.09
2023-05-06T14:48:32.028Z,96095.06
2023-05-06T14:51:00.052Z,96094.84
2023-05-06T14:53:28.243Z,96091.30
2023-05-06T14:55:56.602Z,96091.58
2023-05-06T14:58:25.065Z,96094.88
2023-05-06T15:00:53.417Z,96094.78
2023-05-06T15:03:24.091Z,96092.73
2023-05-06T15:05:52.075Z,96092.67
2023-05-06T15:08:20.091Z,96091.70
2023-05-06T15:10:49.440Z,96092.77
2023-05-06T15:13:17.730Z,96096.60
2023-05-06T15:15:45.909Z,96096.32
2023-05-06T15:18:13.853Z,96098.91
2023-05-06T15:20:41.843Z,96100.09
2023-05-06T15:23:09.772Z,96098.00
2023-05-06T15:25:38.078Z,96100.27
2023-05-06T15:28:07.436Z,96098.71
2023-05-06T15:30:37.816Z,96097.35
2023-05-06T15:33:06.092Z,96097.19
2023-05-06T15:35:34.564Z,96096.99
2023-05-06T15:38:03.995Z,96093.36
2023-05-06T15:40:32.503Z,96091.23
2023-05-06T15:43:00.613Z,96093.33
2023-05-06T15:45:28.578Z,96096.82
2023-05-06T15:47:56.548Z,96096.57
2023-05-06T15:50:33.508Z,96093.72
2023-05-06T15:53:02.634Z,96091.87
2023-05-06T15:55:35.297Z,96088.48
2023-05-06T15:58:17.018Z,96087.80
2023-05-06T16:00:44.988Z,96090.85
2023-05-06T16:03:13.792Z,96087.42
2023-05-06T16:05:41.809Z,96086.48
2023-05-06T16:08:09.867Z,96091.33
2023-05-06T16:10:38.721Z,96092.04
2023-05-06T16:13:07.078Z,96093.89
2023-05-06T16:15:35.629Z,96097.06
2023-05-06T16:18:03.797Z,96095.23
2023-05-06T16:20:32.752Z,96093.27
2023-05-06T16:23:00.792Z,96092.58
2023-05-06T16:25:29.443Z,96090.63
2023-05-06T16:27:57.561Z,96090.65
2023-05-06T16:30:25.916Z,96087.48
2023-05-06T16:32:53.901Z,96095.90
2023-05-06T16:35:21.902Z,96098.01
2023-05-06T16:37:49.874Z,96106.98
2023-05-06T16:40:20.930Z,96109.15
2023-05-06T16:42:49.637Z,96107.35
2023-05-06T16:45:17.648Z,96105.58
2023-05-06T16:47:45.917Z,96105.25
2023-05-06T16:50:18.021Z,96102.71
2023-05-06T16:52:46.735Z,96105.46
2023-05-06T16:55:17.840Z,96108.13
2023-05-06T16:57:46.015Z,96114.88
2023-05-06T17:00:15.547Z,96109.73
2023-05-06T17:02:43.565Z,96111.33
2023-05-06T17:05:11.617Z,96106.95
2023-05-06T17:07:44.935Z,96107.90
2023-05-06T17:10:13.068Z,96110.80
2023-05-06T17:12:42.313Z,96111.70
2023-05-06T17:15:10.730Z,96107.22
2023-05-06T17:17:39.857Z,96111.04
2023-05-06T17:20:08.800Z,96109.20
2023-05-06T17:22:37.393Z,96105.41
2023-05-06T17:25:05.852Z,96106.36
2023-05-06T17:27:33.959Z,96106.84
2023-05-06T17:30:04.740Z,96107.75
2023-05-06T17:32:32.778Z,96109.62
2023-05-06T17:35:01.330Z,96110.72
2023-05-06T17:37:31.003Z,96115.75
2023-05-06T17:39:59.031Z,96112.52
2023-05-06T17:42:29.833Z,96115.20
2023-05-06T17:44:57.739Z,96114.30
2023-05-06T17:47:29.927Z,96117.86
2023-05-06T17:49:58.144Z,96117.36
2023-05-06T17:52:26.681Z,96121.63
2023-05-06T17:55:10.691Z,96126.98
2023-05-06T17:57:43.177Z,96127.48
2023-05-06T18:00:11.687Z,96128.92
2023-05-06T18:02:44.906Z,96130.83
2023-05-06T18:05:13.934Z,96128.34
2023-05-06T18:07:42.510Z,96130.39
2023-05-06T18:10:11.024Z,96130.30
2023-05-06T18:12:39.373Z,96132.33
2023-05-06T18:15:08.827Z,96136.52
2023-05-06T18:17:38.789Z,96134.90
2023-05-06T18:20:08.199Z,96135.85
2023-05-06T18:22:36.354Z,96138.57
2023-05-06T18:25:04.646Z,96138.45
2023-05-06T18:27:32.692Z,96137.61
2023-05-06T18:30:01.080Z,96141.67
2023-05-06T18:32:35.549Z,96143.64
2023-05-06T18:35:03.753Z,96141.03
2023-05-06T18:37:31.719Z,96142.07
2023-05-06T18:39:59.710Z,96142.45
2023-05-06T18:42:28.268Z,96143.52
2023-05-06T18:44:56.683Z,96144.13
2023-05-06T18:47:25.911Z,96143.05
2023-05-06T18:49:54.015Z,96145.39
2023-05-06T18:52:22.091Z,96146.95
2023-05-06T18:54:50.327Z,96146.95
2023-05-06T18:57:19.995Z,96145.61
2023-05-06T18:59:49.068Z,96150.56
2023-05-06T19:02:19.737Z,96150.76
2023-05-06T19:04:50.464Z,96160.37
2023-05-06T19:07:18.479Z,96161.92
2023-05-06T19:09:46.481Z,96165.46
2023-05-06T19:12:15.795Z,96171.54
2023-05-06T19:14:43.831Z,96169.08
2023-05-06T19:17:12.470Z,96174.28
2023-05-06T19:19:41.175Z,96175.75
2023-05-06T19:22:09.143Z,96179.67
2023-05-06T19:24:37.124Z,96180.23
2023-05-06T19:27:06.605Z,96190.36
2023-05-06T19:29:35.738Z,96185.79
2023-05-06T19:32:03.818Z,96185.31
2023-05-06T19:34:31.886Z,96188.89
2023-05-06T19:36:59.817Z,96186.11
2023-05-06T19:39:27.749Z,96186.87
2023-05-06T19:41:55.769Z,96187.88
2023-05-06T19:44:23.685Z,96187.08
2023-05-06T19:46:54.690Z,96187.27
2023-05-06T19:49:22.826Z,96186.02
2023-05-06T19:51:50.876Z,96187.23
2023-05-06T19:54:19.939Z,96189.05
2023-05-06T19:56:47.878Z,96191.02
2023-05-06T19:59:17.803Z,96192.65
2023-05-06T20:01:48.141Z,96194.58
2023-05-06T20:04:16.287Z,96198.92
2023-05-06T20:06:44.633Z,96199.47
2023-05-06T20:09:12.765Z,96199.73
2023-05-06T20:11:40.703Z,96200.62
2023-05-06T20:14:08.592Z,96202.55
2023-05-06T20:16:36.594Z,96204.60
2023-05-06T20:19:04.996Z,96203.91
2023-05-06T20:21:32.902Z,96207.63
2023-05-06T20:24:01.202Z,96206.42
2023-05-06T20:26:29.156Z,96207.06
2023-05-06T20:28:57.326Z,96208.04
2023-05-06T20:31:25.534Z,96208.40
2023-05-06T20:33:53.524Z,96208.24
2023-05-06T20:36:21.522Z,96207.31
2023-05-06T20:38:50.271Z,96206.44
2023-05-06T20:41:18.313Z,96210.60
2023-05-06T20:43:46.283Z,96207.61
2023-05-06T20:46:14.275Z,96210.92
2023-05-06T20:48:42.267Z,96219.00
2023-05-06T20:51:10.197Z,96218.40
2023-05-06T20:53:39.047Z,96219.30
2023-05-06T20:56:16.113Z,96218.16
2023-05-06T20:58:44.148Z,96220.02
2023-05-06T21:01:16.525Z,96219.42
2023-05-06T21:03:48.271Z,96222.27
2023-05-06T21:06:17.762Z,96221.35
2023-05-06T21:08:47.804Z,96227.44
2023-05-06T21:11:18.572Z,96226.61
2023-05-06T21:13:48.114Z,96229.64
2023-05-06T21:16:16.257Z,96229.48
2023-05-06T21:18:44.296Z,96236.60
2023-05-06T21:21:12.279Z,96229.98
2023-05-06T21:23:40.392Z,96230.59
2023-05-06T21:26:08.406Z,96231.63
2023-05-06T21:28:37.226Z,96232.04
2023-05-06T21:31:05.271Z,96229.41
2023-05-06T21:33:33.604Z,96233.33
2023-05-06T21:36:01.573Z,96244.16
2023-05-06T21:38:29.803Z,96250.80
2023-05-06T21:40:57.788Z,96249.03
2023-05-06T21:43:25.870Z,96249.70
2023-05-06T21:45:59.789Z,96248.59
2023-05-06T21:48:29.620Z,96242.88
2023-05-06T21:50:58.660Z,96248.00
2023-05-06T21:53:26.945Z,96247.77
2023-05-06T21:55:56.256Z,96246.30
2023-05-06T21:58:24.289Z,96248.98
2023-05-06T22:00:52.516Z,96247.31
2023-05-06T22:03:21.299Z,96251.36
2023-05-06T22:05:49.314Z,96251.52
2023-05-06T22:08:17.235Z,96252.69
2023-05-06T22:10:45.390Z,96247.29
2023-05-06T22:13:13.308Z,96252.42
2023-05-06T22:15:41.925Z,96254.44
2023-05-06T22:18:10.346Z,96252.12
2023-05-06T22:20:38.607Z,96258.61
2023-05-06T22:23:06.560Z,96255.03
2023-05-06T22:25:34.573Z,96257.17
2023-05-06T22:28:03.212Z,96257.04
2023-05-06T22:30:32.001Z,96260.35
2023-05-06T22:33:00.000Z,96261.67
2023-05-06T22:35:27.973Z,96258.41
2023-05-06T22:37:55.991Z,96260.48
2023-05-06T22:40:24.683Z,96264.64
2023-05-06T22:42:52.847Z,96258.02
2023-05-06T22:45:20.817Z,96264.54
2023-05-06T22:47:48.803Z,96274.82
2023-05-06T22:50:16.843Z,96272.08
2023-05-06T22:52:52.850Z,96274.16
2023-05-06T22:55:20.944Z,96268.34
2023-05-06T22:57:50.164Z,96265.66
2023-05-06T23:00:19.731Z,96266.32
2023-05-06T23:02:47.694Z,96268.69
2023-05-06T23:05:15.874Z,96269.89
2023-05-06T23:07:43.846Z,96269.67
2023-05-06T23:10:11.861Z,96272.14
2023-05-06T23:12:40.226Z,96273.63
2023-05-06T23:15:08.863Z,96273.65
2023-05-06T23:17:39.903Z,96273.43
2023-05-06T23:20:08.350Z,96271.31
2023-05-06T23:22:36.421Z,96274.73
2023-05-06T23:25:05.858Z,96273.36
2023-05-06T23:27:34.252Z,96276.48
2023-05-06T23:30:02.403Z,96275.77
2023-05-06T23:32:30.342Z,96274.56
2023-05-06T23:34:59.687Z,96281.66
2023-05-06T23:37:27.835Z,96284.04
2023-05-06T23:39:56.948Z,96284.02
2023-05-06T23:42:38.793Z,96279.02
2023-05-06T23:45:07.360Z,96281.46
2023-05-06T23:47:35.563Z,96281.95
2023-05-06T23:50:03.876Z,96276.37
2023-05-06T23:52:32.000Z,96279.73
2023-05-06T23:54:59.940Z,96276.19
2023-05-06T23:57:27.873Z,96278.33
2023-05-06T23:59:56.001Z,96272.94
